Attica, OH

4:04 PM EDT on March 30, 2015 (GMT -0400)
City of Willard | | Change Station
CLOSE
Current Station
Personal Weather Station
Location: Willard, OH
Elevation: 928 ft
Nearby Weather Stations

Elev 928 ft 41.05 °N, 82.73 °W | Updated 13 seconds ago

Mostly Cloudy
Mostly Cloudy
54.1 °F
Feels Like 54.1 °F
N
13.5
Wind Variable Wind from West

Today
High -- | Low -- °F
--% Chance of Precip.
Yesterday
High -- | Low -- °F
Precip. -- in
7:18 AM 7:54 PM
Waxing Gibbous, 82% visible
Pressure 29.97 in
Visibility 10.0 miles
Clouds Mostly Cloudy 6500 ft
Mostly Cloudy 7500 ft
Dew Point 30 °F
Humidity 40%
Rainfall 0.00 in
Snow Depth Not available.
UV 3 out of 12
Pollen 6.00 out of 12
Air Quality Not available.
Flu Activity Not available.
METAR KMFD 301952Z 26016G24KT 10SM BKN065 BKN075 10/M03 A2995 RMK AO2 PK WND 26027/1927 SLP149 T01001028

More Conditions Fewer Conditions

Pressure 29.97 in
Visibility 10.0 miles
Clouds Mostly Cloudy 6500 ft
Mostly Cloudy 7500 ft
Dew Point 30 °F
Humidity 40%
Rainfall 0.00 in
Snow Depth Not available.
UV 3 out of 12
Pollen 6.00 out of 12
Air Quality Not available.
Flu Activity Not available.
METAR KMFD 301952Z 26016G24KT 10SM BKN065 BKN075 10/M03 A2995 RMK AO2 PK WND 26027/1927 SLP149 T01001028

More Conditions Fewer Conditions

10-Day Weather Forecast

Almanac

Astronomy

Mar. 30, 2015 Rise Set
Actual Time
Civil Twilight
Nautical Twilight
Astronomical Twilight
Moon
Length of Visible Light
Length of Day
Tomorrow will be .
, % of the Moon is Illuminated

Today's Extremes

State Highs State Lows

Community

WunderPhotos

Upload Photos

1,809,578 photos uploaded!

WunderBlogs® & News

Nearby

Air Quality

  Air Quality AQ Index Pollutant
Not available.

Snow Depth

Station Depth Elevation

Earthquake Activity

City Distance Mag. Time & Date
Minimum magnitude displayed is 2.5.

Coastal Water Temperatures

Place Temperature

Stations

Nearby Weather Stations

Station Location Temp. Windchill Dew Point Humidity Wind Precip. Elev Updated Type